M/V Frank Stegbauer — WCX7185 — position and weather

sailwx.info

Track history (hours):
 
Tides and Currents Weather Stations Pressure Air Temp Water Temp Dewpoint Dewpoint Depression Visibility Wind Speed Wind Dir Waves Ship Positions

M/V Frank Stegbauer

Owner: SOUTHERN TOWING COMPANY LLC., MEMPHIS, TN. More information available from US FCC via Universal Licensing System and Coast Guard Vessel Documentation Center.

Last reported at 2018-Jun-20 17:47 UTC. Time now 2018-Jun-24 15:06 UTC.
Position N 32°00' W 091°05'.

Length 40 m; draft 8.9 m.

MMSI: 366917110.

Date/timePositionNaut miles runAvg speedWind from/ knotsBaromVisibWave heightAir tempDewpointWater temp
2018-Jun-20 17:47N 32°00' W 091°05'6 8.2
2018-Jun-20 17:01N 32°06' W 091°06'0 9.2
2018-Jun-20 17:00N 32°06' W 091°06'3 5.8
2018-Jun-20 16:30N 32°07' W 091°03'4 7.0
2018-Jun-20 16:00N 32°10' W 091°00'4 8.6
2018-Jun-20 15:30N 32°14' W 090°59'4 8.3
2018-Jun-20 15:00N 32°17' W 090°56'3 6.7
2018-Jun-20 14:30N 32°21' W 090°55'4 8.3
2018-Jun-20 14:00N 32°21' W 090°60'4 7.7
2018-Jun-20 13:30N 32°25' W 090°60'4 8.6
2018-Jun-20 13:00N 32°27' W 091°05'4 7.9
2018-Jun-20 12:30N 32°30' W 091°07'4 8.3
2018-Jun-20 12:00N 32°34' W 091°07'4 8.0
2018-Jun-20 11:30N 32°38' W 091°09'13 5.7
2018-Jun-20 09:09N 32°51' W 091°07'2 8.5
2018-Jun-20 08:58N 32°52' W 091°05'  
Track history (hours):
 
Tides and Currents Weather Stations Pressure Air Temp Water Temp Dewpoint Dewpoint Depression Visibility Wind Speed Wind Dir Waves Ship Positions

M/V Frank Stegbauer

Owner: SOUTHERN TOWING COMPANY LLC., MEMPHIS, TN. More information available from US FCC via Universal Licensing System and Coast Guard Vessel Documentation Center.

Last reported at 2018-Jun-20 17:47 UTC. Time now 2018-Jun-24 15:06 UTC.
Position N 32°00' W 091°05'.

Length 40 m; draft 8.9 m.

MMSI: 366917110.

Date/timePositionNaut miles runAvg speedWind from/ knotsBaromVisibWave heightAir tempDewpointWater temp
2018-Jun-20 17:47N 32°00' W 091°05'6 8.2
2018-Jun-20 17:01N 32°06' W 091°06'0 9.2
2018-Jun-20 17:00N 32°06' W 091°06'3 5.8
2018-Jun-20 16:30N 32°07' W 091°03'4 7.0
2018-Jun-20 16:00N 32°10' W 091°00'4 8.6
2018-Jun-20 15:30N 32°14' W 090°59'4 8.3
2018-Jun-20 15:00N 32°17' W 090°56'3 6.7
2018-Jun-20 14:30N 32°21' W 090°55'4 8.3
2018-Jun-20 14:00N 32°21' W 090°60'4 7.7
2018-Jun-20 13:30N 32°25' W 090°60'4 8.6
2018-Jun-20 13:00N 32°27' W 091°05'4 7.9
2018-Jun-20 12:30N 32°30' W 091°07'4 8.3
2018-Jun-20 12:00N 32°34' W 091°07'4 8.0
2018-Jun-20 11:30N 32°38' W 091°09'13 5.7
2018-Jun-20 09:09N 32°51' W 091°07'2 8.5
2018-Jun-20 08:58N 32°52' W 091°05'  

Dump ship's entire track history